sensor_id;sensor_type;location;lat;lon;timestamp;temperature;humidity
18091;DHT22;9172;49.948;9.208;2022-11-21T00:01:34;6.20;99.90
18091;DHT22;9172;49.948;9.208;2022-11-21T00:06:43;6.30;99.90
18091;DHT22;9172;49.948;9.208;2022-11-21T00:09:12;6.30;99.90
18091;DHT22;9172;49.948;9.208;2022-11-21T00:11:42;6.30;99.90
18091;DHT22;9172;49.948;9.208;2022-11-21T00:14:11;6.30;99.90
18091;DHT22;9172;49.948;9.208;2022-11-21T00:16:41;6.20;99.90
18091;DHT22;9172;49.948;9.208;2022-11-21T00:19:09;6.20;99.90
18091;DHT22;9172;49.948;9.208;2022-11-21T00:21:39;6.10;99.90
18091;DHT22;9172;49.948;9.208;2022-11-21T00:24:10;6.20;99.90
18091;DHT22;9172;49.948;9.208;2022-11-21T00:26:38;6.20;99.90
18091;DHT22;9172;49.948;9.208;2022-11-21T00:29:08;6.20;99.90
18091;DHT22;9172;49.948;9.208;2022-11-21T00:31:37;6.20;99.90
18091;DHT22;9172;49.948;9.208;2022-11-21T00:34:06;6.20;99.90
18091;DHT22;9172;49.948;9.208;2022-11-21T00:36:37;6.20;99.90
18091;DHT22;9172;49.948;9.208;2022-11-21T00:39:05;6.20;99.90
18091;DHT22;9172;49.948;9.208;2022-11-21T00:44:12;6.20;99.90
18091;DHT22;9172;49.948;9.208;2022-11-21T00:46:42;6.20;99.90
18091;DHT22;9172;49.948;9.208;2022-11-21T00:49:10;6.20;99.90
18091;DHT22;9172;49.948;9.208;2022-11-21T00:51:40;6.20;99.90
18091;DHT22;9172;49.948;9.208;2022-11-21T00:54:09;6.20;99.90
18091;DHT22;9172;49.948;9.208;2022-11-21T00:56:38;6.20;99.90
18091;DHT22;9172;49.948;9.208;2022-11-21T00:59:07;6.10;99.90
18091;DHT22;9172;49.948;9.208;2022-11-21T01:01:36;6.10;99.90
18091;DHT22;9172;49.948;9.208;2022-11-21T01:04:05;6.10;99.90
18091;DHT22;9172;49.948;9.208;2022-11-21T01:06:36;6.10;99.90
18091;DHT22;9172;49.948;9.208;2022-11-21T01:09:05;6.10;99.90
18091;DHT22;9172;49.948;9.208;2022-11-21T01:11:34;6.10;99.90
18091;DHT22;9172;49.948;9.208;2022-11-21T01:14:04;6.10;99.90
18091;DHT22;9172;49.948;9.208;2022-11-21T01:16:33;6.10;99.90
18091;DHT22;9172;49.948;9.208;2022-11-21T01:19:02;6.00;99.90
18091;DHT22;9172;49.948;9.208;2022-11-21T01:21:32;6.10;99.90
18091;DHT22;9172;49.948;9.208;2022-11-21T01:24:01;6.10;99.90
18091;DHT22;9172;49.948;9.208;2022-11-21T01:26:31;6.10;99.90
18091;DHT22;9172;49.948;9.208;2022-11-21T01:29:00;6.10;99.90
18091;DHT22;9172;49.948;9.208;2022-11-21T01:31:30;6.10;99.90
18091;DHT22;9172;49.948;9.208;2022-11-21T01:33:59;6.10;99.90
18091;DHT22;9172;49.948;9.208;2022-11-21T01:36:29;6.10;99.90
18091;DHT22;9172;49.948;9.208;2022-11-21T01:41:38;6.20;99.90
18091;DHT22;9172;49.948;9.208;2022-11-21T01:44:14;6.10;99.90
18091;DHT22;9172;49.948;9.208;2022-11-21T01:46:44;6.20;99.90
18091;DHT22;9172;49.948;9.208;2022-11-21T01:49:15;6.20;99.90
18091;DHT22;9172;49.948;9.208;2022-11-21T01:51:47;6.20;99.90
18091;DHT22;9172;49.948;9.208;2022-11-21T01:54:23;6.20;99.90
18091;DHT22;9172;49.948;9.208;2022-11-21T01:56:52;7.20;99.90
18091;DHT22;9172;49.948;9.208;2022-11-21T01:59:24;6.30;99.90
18091;DHT22;9172;49.948;9.208;2022-11-21T02:01:55;6.30;99.90
18091;DHT22;9172;49.948;9.208;2022-11-21T02:04:26;6.30;99.90
18091;DHT22;9172;49.948;9.208;2022-11-21T02:06:56;6.30;99.90
18091;DHT22;9172;49.948;9.208;2022-11-21T02:09:26;6.30;99.90
18091;DHT22;9172;49.948;9.208;2022-11-21T02:11:57;6.30;99.90
18091;DHT22;9172;49.948;9.208;2022-11-21T02:14:28;6.30;99.90
18091;DHT22;9172;49.948;9.208;2022-11-21T02:17:16;6.20;99.90
18091;DHT22;9172;49.948;9.208;2022-11-21T02:19:48;6.30;99.90
18091;DHT22;9172;49.948;9.208;2022-11-21T02:22:20;6.30;99.90
18091;DHT22;9172;49.948;9.208;2022-11-21T02:24:59;6.30;99.90
18091;DHT22;9172;49.948;9.208;2022-11-21T02:27:28;6.30;99.90
18091;DHT22;9172;49.948;9.208;2022-11-21T02:29:57;6.40;99.90
18091;DHT22;9172;49.948;9.208;2022-11-21T02:32:32;6.40;99.90
18091;DHT22;9172;49.948;9.208;2022-11-21T02:35:01;6.30;99.90
18091;DHT22;9172;49.948;9.208;2022-11-21T02:37:32;6.40;99.90
18091;DHT22;9172;49.948;9.208;2022-11-21T02:40:02;6.40;99.90
18091;DHT22;9172;49.948;9.208;2022-11-21T02:42:35;6.40;99.90
18091;DHT22;9172;49.948;9.208;2022-11-21T02:45:07;6.40;99.90
18091;DHT22;9172;49.948;9.208;2022-11-21T02:47:38;6.60;99.90
18091;DHT22;9172;49.948;9.208;2022-11-21T02:50:11;6.50;99.90
18091;DHT22;9172;49.948;9.208;2022-11-21T02:52:40;6.50;99.90
18091;DHT22;9172;49.948;9.208;2022-11-21T02:55:09;6.50;99.90
18091;DHT22;9172;49.948;9.208;2022-11-21T02:57:40;6.50;99.90
18091;DHT22;9172;49.948;9.208;2022-11-21T03:00:11;6.50;99.90
18091;DHT22;9172;49.948;9.208;2022-11-21T03:02:40;6.50;99.90
18091;DHT22;9172;49.948;9.208;2022-11-21T03:05:11;6.50;99.90
18091;DHT22;9172;49.948;9.208;2022-11-21T03:07:40;6.50;99.90
18091;DHT22;9172;49.948;9.208;2022-11-21T03:10:09;6.50;99.90
18091;DHT22;9172;49.948;9.208;2022-11-21T03:12:39;6.50;99.90
18091;DHT22;9172;49.948;9.208;2022-11-21T03:15:12;6.50;99.90
18091;DHT22;9172;49.948;9.208;2022-11-21T03:17:41;6.50;99.90
18091;DHT22;9172;49.948;9.208;2022-11-21T03:20:11;6.50;99.90
18091;DHT22;9172;49.948;9.208;2022-11-21T03:22:40;6.50;99.90
18091;DHT22;9172;49.948;9.208;2022-11-21T03:25:10;6.50;99.90
18091;DHT22;9172;49.948;9.208;2022-11-21T03:27:40;6.50;99.90
18091;DHT22;9172;49.948;9.208;2022-11-21T03:30:11;6.50;99.90
18091;DHT22;9172;49.948;9.208;2022-11-21T03:32:40;6.50;99.90
18091;DHT22;9172;49.948;9.208;2022-11-21T03:35:08;6.50;99.90
18091;DHT22;9172;49.948;9.208;2022-11-21T03:37:37;6.50;99.90
18091;DHT22;9172;49.948;9.208;2022-11-21T03:40:08;6.40;99.90
18091;DHT22;9172;49.948;9.208;2022-11-21T03:42:38;6.50;99.90
18091;DHT22;9172;49.948;9.208;2022-11-21T03:45:08;6.50;99.90
18091;DHT22;9172;49.948;9.208;2022-11-21T03:47:37;6.50;99.90
18091;DHT22;9172;49.948;9.208;2022-11-21T03:50:07;6.40;99.90
18091;DHT22;9172;49.948;9.208;2022-11-21T03:52:37;6.50;99.90
18091;DHT22;9172;49.948;9.208;2022-11-21T03:55:07;6.50;99.90
18091;DHT22;9172;49.948;9.208;2022-11-21T03:57:36;6.50;99.90
18091;DHT22;9172;49.948;9.208;2022-11-21T04:00:06;6.50;99.90
18091;DHT22;9172;49.948;9.208;2022-11-21T04:02:35;6.40;99.90
18091;DHT22;9172;49.948;9.208;2022-11-21T04:05:04;6.40;99.90
18091;DHT22;9172;49.948;9.208;2022-11-21T04:07:33;6.40;99.90
18091;DHT22;9172;49.948;9.208;2022-11-21T04:10:01;6.40;99.90
18091;DHT22;9172;49.948;9.208;2022-11-21T04:12:32;6.50;99.90
18091;DHT22;9172;49.948;9.208;2022-11-21T04:15:00;6.40;99.90
18091;DHT22;9172;49.948;9.208;2022-11-21T04:17:48;6.50;99.90
18091;DHT22;9172;49.948;9.208;2022-11-21T04:20:18;6.40;99.90
18091;DHT22;9172;49.948;9.208;2022-11-21T04:22:46;6.40;99.90
18091;DHT22;9172;49.948;9.208;2022-11-21T04:25:15;6.40;99.90
18091;DHT22;9172;49.948;9.208;2022-11-21T04:30:21;6.30;99.90
18091;DHT22;9172;49.948;9.208;2022-11-21T04:32:51;6.30;99.90
18091;DHT22;9172;49.948;9.208;2022-11-21T04:37:56;6.30;99.90
18091;DHT22;9172;49.948;9.208;2022-11-21T04:40:27;6.20;99.90
18091;DHT22;9172;49.948;9.208;2022-11-21T04:42:55;6.20;99.90
18091;DHT22;9172;49.948;9.208;2022-11-21T04:45:25;6.20;99.90
18091;DHT22;9172;49.948;9.208;2022-11-21T04:47:54;6.30;99.90
18091;DHT22;9172;49.948;9.208;2022-11-21T04:50:24;6.20;99.90
18091;DHT22;9172;49.948;9.208;2022-11-21T04:52:54;6.30;99.90
18091;DHT22;9172;49.948;9.208;2022-11-21T04:55:25;6.30;99.90
18091;DHT22;9172;49.948;9.208;2022-11-21T04:57:55;6.30;99.90
18091;DHT22;9172;49.948;9.208;2022-11-21T05:00:24;6.30;99.90
18091;DHT22;9172;49.948;9.208;2022-11-21T05:02:53;6.30;99.90
18091;DHT22;9172;49.948;9.208;2022-11-21T05:05:22;6.30;99.90
18091;DHT22;9172;49.948;9.208;2022-11-21T05:07:52;6.30;99.90
18091;DHT22;9172;49.948;9.208;2022-11-21T05:10:23;6.30;99.90
18091;DHT22;9172;49.948;9.208;2022-11-21T05:12:57;6.30;99.90
18091;DHT22;9172;49.948;9.208;2022-11-21T05:21:01;6.20;99.90
18091;DHT22;9172;49.948;9.208;2022-11-21T05:23:30;6.20;99.90
18091;DHT22;9172;49.948;9.208;2022-11-21T05:26:00;6.20;99.90
18091;DHT22;9172;49.948;9.208;2022-11-21T05:28:28;6.20;99.90
18091;DHT22;9172;49.948;9.208;2022-11-21T05:30:57;6.20;99.90
18091;DHT22;9172;49.948;9.208;2022-11-21T05:33:27;6.20;99.90
18091;DHT22;9172;49.948;9.208;2022-11-21T05:35:58;6.20;99.90
18091;DHT22;9172;49.948;9.208;2022-11-21T05:38:26;6.30;99.90
18091;DHT22;9172;49.948;9.208;2022-11-21T05:40:57;6.20;99.90
18091;DHT22;9172;49.948;9.208;2022-11-21T05:43:26;6.20;99.90
18091;DHT22;9172;49.948;9.208;2022-11-21T05:46:14;6.20;99.90
18091;DHT22;9172;49.948;9.208;2022-11-21T05:48:44;6.20;99.90
18091;DHT22;9172;49.948;9.208;2022-11-21T05:51:13;6.20;99.90
18091;DHT22;9172;49.948;9.208;2022-11-21T05:53:43;6.20;99.90
18091;DHT22;9172;49.948;9.208;2022-11-21T05:56:17;6.20;99.90
18091;DHT22;9172;49.948;9.208;2022-11-21T05:58:47;6.20;99.90
18091;DHT22;9172;49.948;9.208;2022-11-21T06:01:16;6.20;99.90
18091;DHT22;9172;49.948;9.208;2022-11-21T06:03:47;6.20;99.90
18091;DHT22;9172;49.948;9.208;2022-11-21T06:06:16;6.20;99.90
18091;DHT22;9172;49.948;9.208;2022-11-21T06:08:46;6.20;99.90
18091;DHT22;9172;49.948;9.208;2022-11-21T06:13:54;6.20;99.90
18091;DHT22;9172;49.948;9.208;2022-11-21T06:19:00;6.20;99.90
18091;DHT22;9172;49.948;9.208;2022-11-21T06:21:30;6.20;99.90
18091;DHT22;9172;49.948;9.208;2022-11-21T06:24:00;6.20;99.90
18091;DHT22;9172;49.948;9.208;2022-11-21T06:26:29;6.20;99.90
18091;DHT22;9172;49.948;9.208;2022-11-21T06:28:57;6.20;99.90
18091;DHT22;9172;49.948;9.208;2022-11-21T06:31:26;6.20;99.90
18091;DHT22;9172;49.948;9.208;2022-11-21T06:33:58;6.20;99.90
18091;DHT22;9172;49.948;9.208;2022-11-21T06:36:27;6.10;99.90
18091;DHT22;9172;49.948;9.208;2022-11-21T06:38:58;6.20;99.90
18091;DHT22;9172;49.948;9.208;2022-11-21T06:41:28;6.30;99.90
18091;DHT22;9172;49.948;9.208;2022-11-21T06:43:59;6.30;99.90
18091;DHT22;9172;49.948;9.208;2022-11-21T06:46:28;6.20;99.90
18091;DHT22;9172;49.948;9.208;2022-11-21T06:48:57;6.20;99.90
18091;DHT22;9172;49.948;9.208;2022-11-21T06:51:25;6.10;99.90
18091;DHT22;9172;49.948;9.208;2022-11-21T06:53:56;6.20;99.90
18091;DHT22;9172;49.948;9.208;2022-11-21T06:56:26;6.20;99.90
18091;DHT22;9172;49.948;9.208;2022-11-21T07:06:47;6.20;99.90
18091;DHT22;9172;49.948;9.208;2022-11-21T07:09:17;6.20;99.90
18091;DHT22;9172;49.948;9.208;2022-11-21T07:11:46;6.20;99.90
18091;DHT22;9172;49.948;9.208;2022-11-21T07:14:17;6.20;99.90
18091;DHT22;9172;49.948;9.208;2022-11-21T07:16:47;6.20;99.90
18091;DHT22;9172;49.948;9.208;2022-11-21T07:19:16;6.20;99.90
18091;DHT22;9172;49.948;9.208;2022-11-21T07:21:45;6.20;99.90
18091;DHT22;9172;49.948;9.208;2022-11-21T07:24:15;6.20;99.90
18091;DHT22;9172;49.948;9.208;2022-11-21T07:26:44;6.20;99.90
18091;DHT22;9172;49.948;9.208;2022-11-21T07:29:13;6.20;99.90
18091;DHT22;9172;49.948;9.208;2022-11-21T07:31:42;6.20;99.90
18091;DHT22;9172;49.948;9.208;2022-11-21T07:34:12;6.20;99.90
18091;DHT22;9172;49.948;9.208;2022-11-21T07:36:41;6.20;99.90
18091;DHT22;9172;49.948;9.208;2022-11-21T07:39:09;6.20;99.90
18091;DHT22;9172;49.948;9.208;2022-11-21T07:46:54;6.20;99.90
18091;DHT22;9172;49.948;9.208;2022-11-21T07:49:23;6.20;99.90
18091;DHT22;9172;49.948;9.208;2022-11-21T07:51:52;6.20;99.90
18091;DHT22;9172;49.948;9.208;2022-11-21T07:54:22;6.20;99.90
18091;DHT22;9172;49.948;9.208;2022-11-21T07:56:51;6.20;99.90
18091;DHT22;9172;49.948;9.208;2022-11-21T07:59:19;6.20;99.90
18091;DHT22;9172;49.948;9.208;2022-11-21T08:01:50;6.20;99.90
18091;DHT22;9172;49.948;9.208;2022-11-21T08:04:19;6.20;99.90
18091;DHT22;9172;49.948;9.208;2022-11-21T08:06:49;6.20;99.90
18091;DHT22;9172;49.948;9.208;2022-11-21T08:09:18;6.20;99.90
18091;DHT22;9172;49.948;9.208;2022-11-21T08:14:23;6.10;99.90
18091;DHT22;9172;49.948;9.208;2022-11-21T08:16:52;6.20;99.90
18091;DHT22;9172;49.948;9.208;2022-11-21T08:19:22;6.20;99.90
18091;DHT22;9172;49.948;9.208;2022-11-21T08:21:52;6.30;99.90
18091;DHT22;9172;49.948;9.208;2022-11-21T08:24:21;6.30;99.90
18091;DHT22;9172;49.948;9.208;2022-11-21T08:26:51;6.20;99.90
18091;DHT22;9172;49.948;9.208;2022-11-21T08:31:56;6.20;99.90
18091;DHT22;9172;49.948;9.208;2022-11-21T08:34:29;6.30;99.90
18091;DHT22;9172;49.948;9.208;2022-11-21T08:36:59;6.30;99.90
18091;DHT22;9172;49.948;9.208;2022-11-21T08:39:28;6.30;99.90
18091;DHT22;9172;49.948;9.208;2022-11-21T08:44:34;6.30;99.90
18091;DHT22;9172;49.948;9.208;2022-11-21T08:47:03;6.30;99.90
18091;DHT22;9172;49.948;9.208;2022-11-21T08:49:34;6.30;99.90
18091;DHT22;9172;49.948;9.208;2022-11-21T08:52:03;6.30;99.90
18091;DHT22;9172;49.948;9.208;2022-11-21T08:54:31;6.40;99.90
18091;DHT22;9172;49.948;9.208;2022-11-21T08:57:01;6.30;99.90
18091;DHT22;9172;49.948;9.208;2022-11-21T08:59:30;6.40;99.90
18091;DHT22;9172;49.948;9.208;2022-11-21T09:01:59;6.40;99.90
18091;DHT22;9172;49.948;9.208;2022-11-21T09:04:29;6.40;99.90
18091;DHT22;9172;49.948;9.208;2022-11-21T09:06:59;6.40;99.90
18091;DHT22;9172;49.948;9.208;2022-11-21T09:09:28;6.40;99.90
18091;DHT22;9172;49.948;9.208;2022-11-21T09:14:34;6.50;99.90
18091;DHT22;9172;49.948;9.208;2022-11-21T09:17:20;6.50;99.90
18091;DHT22;9172;49.948;9.208;2022-11-21T09:20:08;6.40;99.90
18091;DHT22;9172;49.948;9.208;2022-11-21T09:22:39;6.50;99.90
18091;DHT22;9172;49.948;9.208;2022-11-21T09:25:08;6.60;99.90
18091;DHT22;9172;49.948;9.208;2022-11-21T09:27:38;6.60;99.90
18091;DHT22;9172;49.948;9.208;2022-11-21T09:30:08;6.60;99.90
18091;DHT22;9172;49.948;9.208;2022-11-21T09:32:39;6.60;99.90
18091;DHT22;9172;49.948;9.208;2022-11-21T09:35:09;6.70;99.90
18091;DHT22;9172;49.948;9.208;2022-11-21T09:37:38;6.60;99.90
18091;DHT22;9172;49.948;9.208;2022-11-21T09:40:12;6.70;99.90
18091;DHT22;9172;49.948;9.208;2022-11-21T09:42:58;6.70;99.90
18091;DHT22;9172;49.948;9.208;2022-11-21T09:45:31;6.70;99.90
18091;DHT22;9172;49.948;9.208;2022-11-21T09:48:07;6.70;99.90
18091;DHT22;9172;49.948;9.208;2022-11-21T09:50:36;6.70;99.90
18091;DHT22;9172;49.948;9.208;2022-11-21T09:55:45;6.60;99.90
18091;DHT22;9172;49.948;9.208;2022-11-21T09:58:23;6.70;99.90
18091;DHT22;9172;49.948;9.208;2022-11-21T10:00:54;6.70;99.90
18091;DHT22;9172;49.948;9.208;2022-11-21T10:03:25;6.60;99.90
18091;DHT22;9172;49.948;9.208;2022-11-21T10:05:57;6.60;99.90
18091;DHT22;9172;49.948;9.208;2022-11-21T10:08:33;6.70;99.90
18091;DHT22;9172;49.948;9.208;2022-11-21T10:13:59;6.70;99.90
18091;DHT22;9172;49.948;9.208;2022-11-21T10:16:31;6.70;99.90
18091;DHT22;9172;49.948;9.208;2022-11-21T10:22:17;6.80;99.90
18091;DHT22;9172;49.948;9.208;2022-11-21T10:24:51;6.80;99.90
18091;DHT22;9172;49.948;9.208;2022-11-21T10:30:05;6.90;99.90
18091;DHT22;9172;49.948;9.208;2022-11-21T10:32:38;6.90;99.90
18091;DHT22;9172;49.948;9.208;2022-11-21T10:35:15;6.90;99.90
18091;DHT22;9172;49.948;9.208;2022-11-21T10:40:31;7.00;99.90
18091;DHT22;9172;49.948;9.208;2022-11-21T10:43:05;7.00;99.90
18091;DHT22;9172;49.948;9.208;2022-11-21T10:45:54;7.00;99.90
18091;DHT22;9172;49.948;9.208;2022-11-21T10:48:23;7.00;99.90
18091;DHT22;9172;49.948;9.208;2022-11-21T10:53:37;7.10;99.90
18091;DHT22;9172;49.948;9.208;2022-11-21T10:56:25;7.10;99.90
18091;DHT22;9172;49.948;9.208;2022-11-21T10:58:56;7.20;99.90
18091;DHT22;9172;49.948;9.208;2022-11-21T11:01:27;7.20;99.90
18091;DHT22;9172;49.948;9.208;2022-11-21T11:04:07;7.20;99.90
18091;DHT22;9172;49.948;9.208;2022-11-21T11:06:37;7.20;99.90
18091;DHT22;9172;49.948;9.208;2022-11-21T11:09:12;7.30;99.90
18091;DHT22;9172;49.948;9.208;2022-11-21T11:11:38;7.30;99.90
18091;DHT22;9172;49.948;9.208;2022-11-21T11:14:11;7.30;99.90
18091;DHT22;9172;49.948;9.208;2022-11-21T11:16:42;7.30;99.90
18091;DHT22;9172;49.948;9.208;2022-11-21T11:19:19;7.40;99.90
18091;DHT22;9172;49.948;9.208;2022-11-21T11:21:48;7.40;99.90
18091;DHT22;9172;49.948;9.208;2022-11-21T11:24:25;7.40;99.90
18091;DHT22;9172;49.948;9.208;2022-11-21T11:26:58;7.40;99.90
18091;DHT22;9172;49.948;9.208;2022-11-21T11:29:29;7.40;99.90
18091;DHT22;9172;49.948;9.208;2022-11-21T11:32:01;7.40;99.90
18091;DHT22;9172;49.948;9.208;2022-11-21T11:37:25;7.40;99.90
18091;DHT22;9172;49.948;9.208;2022-11-21T11:39:58;7.40;99.90
18091;DHT22;9172;49.948;9.208;2022-11-21T11:42:50;7.50;99.90
18091;DHT22;9172;49.948;9.208;2022-11-21T11:45:50;7.60;99.90
18091;DHT22;9172;49.948;9.208;2022-11-21T11:48:38;7.70;99.90
18091;DHT22;9172;49.948;9.208;2022-11-21T11:51:11;7.70;99.90
18091;DHT22;9172;49.948;9.208;2022-11-21T11:53:41;7.60;99.90
18091;DHT22;9172;49.948;9.208;2022-11-21T11:56:15;7.70;99.90
18091;DHT22;9172;49.948;9.208;2022-11-21T11:58:46;7.60;99.90
18091;DHT22;9172;49.948;9.208;2022-11-21T12:01:17;7.60;99.90
18091;DHT22;9172;49.948;9.208;2022-11-21T12:03:52;7.60;99.90
18091;DHT22;9172;49.948;9.208;2022-11-21T12:06:23;7.60;99.90
18091;DHT22;9172;49.948;9.208;2022-11-21T12:08:54;7.60;99.90
18091;DHT22;9172;49.948;9.208;2022-11-21T12:11:28;7.60;99.90
18091;DHT22;9172;49.948;9.208;2022-11-21T12:14:21;7.60;99.90
18091;DHT22;9172;49.948;9.208;2022-11-21T12:17:09;7.60;99.90
18091;DHT22;9172;49.948;9.208;2022-11-21T12:22:18;7.50;99.90
18091;DHT22;9172;49.948;9.208;2022-11-21T12:24:49;7.50;99.90
18091;DHT22;9172;49.948;9.208;2022-11-21T12:27:25;7.50;99.90
18091;DHT22;9172;49.948;9.208;2022-11-21T12:32:52;7.50;99.90
18091;DHT22;9172;49.948;9.208;2022-11-21T12:38:10;7.40;99.90
18091;DHT22;9172;49.948;9.208;2022-11-21T12:43:28;7.50;99.90
18091;DHT22;9172;49.948;9.208;2022-11-21T12:48:49;7.50;99.90
18091;DHT22;9172;49.948;9.208;2022-11-21T12:51:58;7.50;99.90
18091;DHT22;9172;49.948;9.208;2022-11-21T12:57:50;7.50;99.90
18091;DHT22;9172;49.948;9.208;2022-11-21T13:00:23;7.50;99.90
18091;DHT22;9172;49.948;9.208;2022-11-21T13:03:13;7.50;99.90
18091;DHT22;9172;49.948;9.208;2022-11-21T13:05:41;7.40;99.90
18091;DHT22;9172;49.948;9.208;2022-11-21T13:08:13;7.50;99.90
18091;DHT22;9172;49.948;9.208;2022-11-21T13:10:45;7.50;99.90
18091;DHT22;9172;49.948;9.208;2022-11-21T13:13:18;7.50;99.90
18091;DHT22;9172;49.948;9.208;2022-11-21T13:18:29;7.50;99.90
18091;DHT22;9172;49.948;9.208;2022-11-21T13:20:59;7.50;99.90
18091;DHT22;9172;49.948;9.208;2022-11-21T13:32:38;7.70;99.90
18091;DHT22;9172;49.948;9.208;2022-11-21T13:38:01;7.70;99.90
18091;DHT22;9172;49.948;9.208;2022-11-21T13:40:38;7.70;99.90
18091;DHT22;9172;49.948;9.208;2022-11-21T13:46:06;7.70;99.90
18091;DHT22;9172;49.948;9.208;2022-11-21T13:48:49;7.70;99.90
18091;DHT22;9172;49.948;9.208;2022-11-21T13:51:39;7.70;99.90
18091;DHT22;9172;49.948;9.208;2022-11-21T13:54:31;7.80;99.90
18091;DHT22;9172;49.948;9.208;2022-11-21T13:57:07;7.70;99.90
18091;DHT22;9172;49.948;9.208;2022-11-21T14:02:41;7.70;99.90
18091;DHT22;9172;49.948;9.208;2022-11-21T14:05:30;7.80;99.90
18091;DHT22;9172;49.948;9.208;2022-11-21T14:08:18;7.70;99.90
18091;DHT22;9172;49.948;9.208;2022-11-21T14:10:49;7.70;99.90
18091;DHT22;9172;49.948;9.208;2022-11-21T14:16:07;7.70;99.90
18091;DHT22;9172;49.948;9.208;2022-11-21T14:18:38;7.70;99.90
18091;DHT22;9172;49.948;9.208;2022-11-21T14:21:18;7.60;99.90
18091;DHT22;9172;49.948;9.208;2022-11-21T14:23:48;7.60;99.90
18091;DHT22;9172;49.948;9.208;2022-11-21T14:26:17;7.60;99.90
18091;DHT22;9172;49.948;9.208;2022-11-21T14:28:48;7.60;99.90
18091;DHT22;9172;49.948;9.208;2022-11-21T14:31:18;7.60;99.90
18091;DHT22;9172;49.948;9.208;2022-11-21T14:33:47;7.60;99.90
18091;DHT22;9172;49.948;9.208;2022-11-21T14:36:17;7.50;99.90
18091;DHT22;9172;49.948;9.208;2022-11-21T14:38:48;7.50;99.90
18091;DHT22;9172;49.948;9.208;2022-11-21T14:44:12;6.30;99.90
18091;DHT22;9172;49.948;9.208;2022-11-21T14:46:37;7.50;99.90
18091;DHT22;9172;49.948;9.208;2022-11-21T14:49:24;7.50;99.90
18091;DHT22;9172;49.948;9.208;2022-11-21T14:52:11;7.40;99.90
18091;DHT22;9172;49.948;9.208;2022-11-21T14:57:23;7.40;99.90
18091;DHT22;9172;49.948;9.208;2022-11-21T15:02:29;7.40;99.90
18091;DHT22;9172;49.948;9.208;2022-11-21T15:05:02;7.40;99.90
18091;DHT22;9172;49.948;9.208;2022-11-21T15:07:38;7.30;99.90
18091;DHT22;9172;49.948;9.208;2022-11-21T15:10:11;7.30;99.90
18091;DHT22;9172;49.948;9.208;2022-11-21T15:12:44;7.30;99.90
18091;DHT22;9172;49.948;9.208;2022-11-21T15:15:21;7.30;99.90
18091;DHT22;9172;49.948;9.208;2022-11-21T15:17:52;7.30;99.90
18091;DHT22;9172;49.948;9.208;2022-11-21T15:20:21;7.30;99.90
18091;DHT22;9172;49.948;9.208;2022-11-21T15:22:53;7.20;99.90
18091;DHT22;9172;49.948;9.208;2022-11-21T15:25:25;7.20;99.90
18091;DHT22;9172;49.948;9.208;2022-11-21T15:28:07;7.10;99.90
18091;DHT22;9172;49.948;9.208;2022-11-21T15:30:37;7.00;99.90
18091;DHT22;9172;49.948;9.208;2022-11-21T15:33:11;7.00;99.90
18091;DHT22;9172;49.948;9.208;2022-11-21T15:35:46;6.90;99.90
18091;DHT22;9172;49.948;9.208;2022-11-21T15:38:17;6.80;99.90
18091;DHT22;9172;49.948;9.208;2022-11-21T15:41:21;6.70;99.90
18091;DHT22;9172;49.948;9.208;2022-11-21T15:43:42;6.60;99.90
18091;DHT22;9172;49.948;9.208;2022-11-21T15:48:52;6.40;99.90
18091;DHT22;9172;49.948;9.208;2022-11-21T15:51:23;6.30;99.90
18091;DHT22;9172;49.948;9.208;2022-11-21T15:53:52;6.20;99.90
18091;DHT22;9172;49.948;9.208;2022-11-21T15:56:21;6.10;99.90
18091;DHT22;9172;49.948;9.208;2022-11-21T15:58:51;6.00;99.90
18091;DHT22;9172;49.948;9.208;2022-11-21T16:01:21;5.90;99.90
18091;DHT22;9172;49.948;9.208;2022-11-21T16:03:52;5.90;99.90
18091;DHT22;9172;49.948;9.208;2022-11-21T16:06:21;6.00;99.90
18091;DHT22;9172;49.948;9.208;2022-11-21T16:08:50;6.00;99.90
18091;DHT22;9172;49.948;9.208;2022-11-21T16:11:22;5.90;99.90
18091;DHT22;9172;49.948;9.208;2022-11-21T16:13:52;5.90;99.90
18091;DHT22;9172;49.948;9.208;2022-11-21T16:16:22;5.80;99.90
18091;DHT22;9172;49.948;9.208;2022-11-21T16:21:34;5.80;99.90
18091;DHT22;9172;49.948;9.208;2022-11-21T16:24:04;5.80;99.90
18091;DHT22;9172;49.948;9.208;2022-11-21T16:26:33;5.90;99.90
18091;DHT22;9172;49.948;9.208;2022-11-21T16:29:02;5.90;99.90
18091;DHT22;9172;49.948;9.208;2022-11-21T16:34:10;5.90;99.90
18091;DHT22;9172;49.948;9.208;2022-11-21T16:36:39;6.00;99.90
18091;DHT22;9172;49.948;9.208;2022-11-21T16:39:08;6.10;99.90
18091;DHT22;9172;49.948;9.208;2022-11-21T16:41:38;6.10;99.90
18091;DHT22;9172;49.948;9.208;2022-11-21T16:46:49;6.10;99.90
18091;DHT22;9172;49.948;9.208;2022-11-21T16:49:20;6.10;99.90
18091;DHT22;9172;49.948;9.208;2022-11-21T16:51:51;6.20;99.90
18091;DHT22;9172;49.948;9.208;2022-11-21T16:54:19;6.20;99.90
18091;DHT22;9172;49.948;9.208;2022-11-21T16:56:49;6.20;99.90
18091;DHT22;9172;49.948;9.208;2022-11-21T16:59:18;6.20;99.90
18091;DHT22;9172;49.948;9.208;2022-11-21T17:01:48;6.20;99.90
18091;DHT22;9172;49.948;9.208;2022-11-21T17:04:18;6.10;99.90
18091;DHT22;9172;49.948;9.208;2022-11-21T17:06:47;6.20;99.90
18091;DHT22;9172;49.948;9.208;2022-11-21T17:09:16;6.20;99.90
18091;DHT22;9172;49.948;9.208;2022-11-21T17:11:44;6.20;99.90
18091;DHT22;9172;49.948;9.208;2022-11-21T17:16:49;6.20;99.90
18091;DHT22;9172;49.948;9.208;2022-11-21T17:21:54;6.20;99.90
18091;DHT22;9172;49.948;9.208;2022-11-21T17:24:24;6.20;99.90
18091;DHT22;9172;49.948;9.208;2022-11-21T17:29:28;6.20;99.90
18091;DHT22;9172;49.948;9.208;2022-11-21T17:31:58;6.10;99.90
18091;DHT22;9172;49.948;9.208;2022-11-21T17:34:27;6.20;99.90
18091;DHT22;9172;49.948;9.208;2022-11-21T17:39:31;6.20;99.90
18091;DHT22;9172;49.948;9.208;2022-11-21T17:42:01;6.20;99.90
18091;DHT22;9172;49.948;9.208;2022-11-21T17:44:29;6.20;99.90
18091;DHT22;9172;49.948;9.208;2022-11-21T17:49:37;6.20;99.90
18091;DHT22;9172;49.948;9.208;2022-11-21T17:54:42;6.20;99.90
18091;DHT22;9172;49.948;9.208;2022-11-21T17:57:12;6.30;99.90
18091;DHT22;9172;49.948;9.208;2022-11-21T17:59:41;6.30;99.90
18091;DHT22;9172;49.948;9.208;2022-11-21T18:02:11;6.30;99.90
18091;DHT22;9172;49.948;9.208;2022-11-21T18:04:40;6.30;99.90
18091;DHT22;9172;49.948;9.208;2022-11-21T18:07:09;6.30;99.90
18091;DHT22;9172;49.948;9.208;2022-11-21T18:09:39;6.40;99.90
18091;DHT22;9172;49.948;9.208;2022-11-21T18:14:45;6.40;99.90
18091;DHT22;9172;49.948;9.208;2022-11-21T18:17:13;6.40;99.90
18091;DHT22;9172;49.948;9.208;2022-11-21T18:19:44;6.30;99.90
18091;DHT22;9172;49.948;9.208;2022-11-21T18:22:13;6.30;99.90
18091;DHT22;9172;49.948;9.208;2022-11-21T18:24:43;6.30;99.90
18091;DHT22;9172;49.948;9.208;2022-11-21T18:27:12;6.30;99.90
18091;DHT22;9172;49.948;9.208;2022-11-21T18:29:41;6.20;99.90
18091;DHT22;9172;49.948;9.208;2022-11-21T18:32:12;6.20;99.90
18091;DHT22;9172;49.948;9.208;2022-11-21T18:34:41;6.30;99.90
18091;DHT22;9172;49.948;9.208;2022-11-21T18:37:10;6.30;99.90
18091;DHT22;9172;49.948;9.208;2022-11-21T18:39:40;6.30;99.90
18091;DHT22;9172;49.948;9.208;2022-11-21T18:42:09;6.30;99.90
18091;DHT22;9172;49.948;9.208;2022-11-21T18:44:39;6.30;99.90
18091;DHT22;9172;49.948;9.208;2022-11-21T18:49:49;6.40;99.90
18091;DHT22;9172;49.948;9.208;2022-11-21T18:54:57;6.50;99.90
18091;DHT22;9172;49.948;9.208;2022-11-21T18:57:25;6.50;99.90
18091;DHT22;9172;49.948;9.208;2022-11-21T18:59:54;6.50;99.90